Time;durP1;ratioP1;P1;durP2;ratioP2;P2;SDS_P1;SDS_P2;PMS_P1;PMS_P2;Temp;Humidity;BMP_temperature;BMP_pressure;BME280_temperature;BME280_humidity;BME280_pressure;Samples;Min_cycle;Max_cycle;Signal;HPM_P1;HPM_P2
2023/09/26 00:01:09;;;;;;;2.78;2.45;;;;;;;;;;5061934;28;20106;-83
2023/09/26 00:03:34;;;;;;;2.53;2.17;;;;;;;;;;5057124;28;20540;-83
2023/09/26 00:05:59;;;;;;;3.10;2.50;;;;;;;;;;5068732;28;20033;-82
2023/09/26 00:08:25;;;;;;;2.65;2.22;;;;;;;;;;5069311;28;20028;-82
2023/09/26 00:10:50;;;;;;;4.72;2.40;;;;;;;;;;5071875;28;20030;-81
2023/09/26 00:13:16;;;;;;;2.55;2.35;;;;;;;;;;5062467;28;20087;-82
2023/09/26 00:15:42;;;;;;;4.38;2.90;;;;;;;;;;5064239;28;20024;-82
2023/09/26 00:18:08;;;;;;;4.30;2.63;;;;;;;;;;5069233;28;20031;-82
2023/09/26 00:20:38;;;;;;;4.88;2.25;;;;;;;;;;5062850;28;20025;-81
2023/09/26 00:23:04;;;;;;;3.15;2.35;;;;;;;;;;5071698;28;20021;-81
2023/09/26 00:25:30;;;;;;;3.10;2.38;;;;;;;;;;5067025;28;20538;-82
2023/09/26 00:27:56;;;;;;;3.55;2.30;;;;;;;;;;5060477;28;20105;-82
2023/09/26 00:30:23;;;;;;;2.28;1.98;;;;;;;;;;5056723;28;20071;-82
2023/09/26 00:32:48;;;;;;;2.63;2.10;;;;;;;;;;5055644;28;20034;-81
2023/09/26 00:35:14;;;;;;;2.83;2.40;;;;;;;;;;5058313;28;20039;-82
2023/09/26 00:37:40;;;;;;;3.83;2.45;;;;;;;;;;5064640;28;20457;-83
2023/09/26 00:40:18;;;;;;;3.83;2.58;;;;;;;;;;5061387;28;20029;-81
2023/09/26 00:42:43;;;;;;;3.22;2.47;;;;;;;;;;5061358;28;20016;-82
2023/09/26 00:45:09;;;;;;;4.93;2.75;;;;;;;;;;5084734;28;20105;-82
2023/09/26 00:47:35;;;;;;;2.67;2.40;;;;;;;;;;5084736;28;20080;-82
2023/09/26 00:50:07;;;;;;;4.47;2.90;;;;;;;;;;5066618;28;20033;-81
2023/09/26 00:52:34;;;;;;;2.60;2.28;;;;;;;;;;5066916;28;20031;-83
2023/09/26 00:55:02;;;;;;;3.47;2.58;;;;;;;;;;5068350;28;20032;-82
2023/09/26 00:57:28;;;;;;;5.55;3.08;;;;;;;;;;5069107;28;20032;-81
2023/09/26 00:59:53;;;;;;;3.25;2.20;;;;;;;;;;5062462;28;20021;-81
2023/09/26 01:02:18;;;;;;;3.10;2.58;;;;;;;;;;5071456;28;20017;-83
2023/09/26 01:04:44;;;;;;;5.43;2.95;;;;;;;;;;5065491;28;20029;-83
2023/09/26 01:07:09;;;;;;;6.57;2.80;;;;;;;;;;5061717;28;20058;-81
2023/09/26 01:09:35;;;;;;;2.35;2.10;;;;;;;;;;5056882;28;20025;-82
2023/09/26 01:12:00;;;;;;;2.17;1.85;;;;;;;;;;5074388;28;20023;-81
2023/09/26 01:14:25;;;;;;;2.40;2.17;;;;;;;;;;5075994;28;20272;-80
2023/09/26 01:16:54;;;;;;;4.55;2.72;;;;;;;;;;5077774;28;20033;-83
2023/09/26 01:19:20;;;;;;;2.97;2.58;;;;;;;;;;5065596;28;20115;-83
2023/09/26 01:21:45;;;;;;;3.78;2.15;;;;;;;;;;5071385;28;20064;-81
2023/09/26 01:24:11;;;;;;;4.35;2.60;;;;;;;;;;5080272;28;20043;-83
2023/09/26 01:26:36;;;;;;;3.15;2.00;;;;;;;;;;5060791;28;20051;-83
2023/09/26 01:29:03;;;;;;;3.08;2.08;;;;;;;;;;5073592;28;20033;-82
2023/09/26 01:31:28;;;;;;;4.82;2.35;;;;;;;;;;5077028;28;20032;-83
2023/09/26 01:33:53;;;;;;;3.60;3.03;;;;;;;;;;5067473;28;20033;-83
2023/09/26 01:36:19;;;;;;;2.55;2.25;;;;;;;;;;5080815;28;20043;-82
2023/09/26 01:38:44;;;;;;;2.72;2.22;;;;;;;;;;5070167;28;20025;-82
2023/09/26 01:41:09;;;;;;;2.55;2.15;;;;;;;;;;5084064;28;20031;-80
2023/09/26 01:43:36;;;;;;;2.53;2.22;;;;;;;;;;5075995;28;20024;-82
2023/09/26 01:46:02;;;;;;;2.92;1.90;;;;;;;;;;5079456;28;20025;-82
2023/09/26 01:48:27;;;;;;;5.55;2.70;;;;;;;;;;5070169;28;20020;-83
2023/09/26 01:50:53;;;;;;;2.58;2.38;;;;;;;;;;5058834;28;20033;-81
2023/09/26 01:53:18;;;;;;;2.90;2.10;;;;;;;;;;5074304;28;20086;-81
2023/09/26 01:55:44;;;;;;;3.42;2.40;;;;;;;;;;5051549;28;20027;-82
2023/09/26 01:58:09;;;;;;;6.43;2.97;;;;;;;;;;5071668;28;20021;-82
2023/09/26 02:00:34;;;;;;;3.33;2.20;;;;;;;;;;5085901;28;20401;-82
2023/09/26 02:03:00;;;;;;;3.22;2.60;;;;;;;;;;5070324;28;20074;-83
2023/09/26 02:05:25;;;;;;;3.38;2.55;;;;;;;;;;5068708;28;20062;-82
2023/09/26 02:07:51;;;;;;;3.42;2.60;;;;;;;;;;5069031;28;20085;-83
2023/09/26 02:10:17;;;;;;;2.90;2.50;;;;;;;;;;5087984;28;20023;-82
2023/09/26 02:12:48;;;;;;;2.95;2.20;;;;;;;;;;5076581;28;20036;-82
2023/09/26 02:15:13;;;;;;;2.60;2.40;;;;;;;;;;5071951;28;20043;-81
2023/09/26 02:17:40;;;;;;;7.75;2.85;;;;;;;;;;5088941;28;20508;-82
2023/09/26 02:20:12;;;;;;;3.30;2.05;;;;;;;;;;5074767;28;20023;-82
2023/09/26 02:22:38;;;;;;;4.50;2.70;;;;;;;;;;5064253;28;20605;-83
2023/09/26 02:25:05;;;;;;;2.22;2.03;;;;;;;;;;5082236;28;20395;-81
2023/09/26 02:27:30;;;;;;;4.45;2.22;;;;;;;;;;5069524;28;20032;-82
2023/09/26 02:29:55;;;;;;;5.53;2.10;;;;;;;;;;5084577;28;20490;-83
2023/09/26 02:32:21;;;;;;;4.22;2.53;;;;;;;;;;5074484;28;20025;-81
2023/09/26 02:34:46;;;;;;;3.40;2.58;;;;;;;;;;5073765;28;20024;-81
2023/09/26 02:37:11;;;;;;;2.15;1.95;;;;;;;;;;5066262;28;20037;-82
2023/09/26 02:39:37;;;;;;;4.30;2.50;;;;;;;;;;5066066;28;20024;-81
2023/09/26 02:42:02;;;;;;;3.67;1.83;;;;;;;;;;5072006;28;20710;-82
2023/09/26 02:44:28;;;;;;;4.15;2.28;;;;;;;;;;5082598;28;20056;-82
2023/09/26 02:46:53;;;;;;;2.92;2.63;;;;;;;;;;5049737;28;20033;-82
2023/09/26 02:49:18;;;;;;;3.38;2.38;;;;;;;;;;5075943;28;20024;-82
2023/09/26 02:51:44;;;;;;;4.10;2.83;;;;;;;;;;5064324;28;20028;-82
2023/09/26 02:54:09;;;;;;;2.83;2.40;;;;;;;;;;5070481;28;20025;-82
2023/09/26 02:56:34;;;;;;;8.82;2.50;;;;;;;;;;5070723;28;20023;-82
2023/09/26 02:59:00;;;;;;;5.10;2.55;;;;;;;;;;5082590;28;20033;-82
2023/09/26 03:01:25;;;;;;;3.42;2.35;;;;;;;;;;5068872;28;20067;-82
2023/09/26 03:03:52;;;;;;;4.72;2.70;;;;;;;;;;5072189;28;20024;-82
2023/09/26 03:06:17;;;;;;;2.08;1.88;;;;;;;;;;5072334;28;20029;-83
2023/09/26 03:08:43;;;;;;;5.78;3.15;;;;;;;;;;5058403;28;20086;-81
2023/09/26 03:11:08;;;;;;;4.55;2.45;;;;;;;;;;5062718;28;20025;-81
2023/09/26 03:13:34;;;;;;;6.63;2.58;;;;;;;;;;5067011;28;20025;-82
2023/09/26 03:16:00;;;;;;;3.60;2.58;;;;;;;;;;5082277;28;20020;-82
2023/09/26 03:18:26;;;;;;;3.47;2.45;;;;;;;;;;5085577;28;20079;-83
2023/09/26 03:20:52;;;;;;;4.15;2.75;;;;;;;;;;5070292;28;20025;-81
2023/09/26 03:23:19;;;;;;;3.05;2.33;;;;;;;;;;5074479;28;20020;-82
2023/09/26 03:25:45;;;;;;;4.07;3.08;;;;;;;;;;5064426;28;20060;-81
2023/09/26 03:28:10;;;;;;;4.60;2.63;;;;;;;;;;5052929;28;20071;-81
2023/09/26 03:30:36;;;;;;;4.20;2.25;;;;;;;;;;5057757;28;20776;-82
2023/09/26 03:33:01;;;;;;;3.47;2.22;;;;;;;;;;5062336;28;20032;-82
2023/09/26 03:35:26;;;;;;;3.20;2.22;;;;;;;;;;5061685;28;20021;-81
2023/09/26 03:37:52;;;;;;;2.60;2.40;;;;;;;;;;5069023;28;20092;-81
2023/09/26 03:40:17;;;;;;;2.90;2.45;;;;;;;;;;5069495;28;20028;-81
2023/09/26 03:42:42;;;;;;;3.25;2.30;;;;;;;;;;5067604;28;20033;-81
2023/09/26 03:45:08;;;;;;;2.83;2.38;;;;;;;;;;5065385;28;20029;-83
2023/09/26 03:47:33;;;;;;;2.65;2.45;;;;;;;;;;5064714;28;20375;-82
2023/09/26 03:49:59;;;;;;;3.90;2.72;;;;;;;;;;5071040;28;20024;-83
2023/09/26 03:52:24;;;;;;;5.10;2.72;;;;;;;;;;5072135;28;20426;-82
2023/09/26 03:54:50;;;;;;;3.13;2.05;;;;;;;;;;5078382;28;20092;-79
2023/09/26 03:57:15;;;;;;;5.90;2.47;;;;;;;;;;5061906;28;20440;-81
2023/09/26 03:59:40;;;;;;;5.32;3.05;;;;;;;;;;5064660;28;20443;-83
2023/09/26 04:02:06;;;;;;;9.38;3.20;;;;;;;;;;5062517;28;20101;-83
2023/09/26 04:04:31;;;;;;;6.93;3.47;;;;;;;;;;5056798;28;20027;-81
2023/09/26 04:06:58;;;;;;;4.97;3.08;;;;;;;;;;5064966;28;20040;-82
2023/09/26 04:09:23;;;;;;;7.63;2.85;;;;;;;;;;5074184;28;20463;-81
2023/09/26 04:11:48;;;;;;;3.22;2.60;;;;;;;;;;5055921;28;20036;-82
2023/09/26 04:14:14;;;;;;;5.85;3.72;;;;;;;;;;5058761;28;20036;-82
2023/09/26 04:16:39;;;;;;;6.85;3.40;;;;;;;;;;5057785;28;20033;-82
2023/09/26 04:19:04;;;;;;;5.72;3.47;;;;;;;;;;5068791;28;20035;-82
2023/09/26 04:21:30;;;;;;;3.95;3.25;;;;;;;;;;5076786;28;20069;-82
2023/09/26 04:23:55;;;;;;;5.32;3.58;;;;;;;;;;5060458;28;20074;-84
2023/09/26 04:26:21;;;;;;;4.65;2.72;;;;;;;;;;5086946;28;20028;-80
2023/09/26 04:28:46;;;;;;;5.28;3.70;;;;;;;;;;5087223;28;20013;-81
2023/09/26 04:31:16;;;;;;;5.95;3.50;;;;;;;;;;5086209;28;20024;-80
2023/09/26 04:33:51;;;;;;;4.63;3.33;;;;;;;;;;5076465;28;20498;-81
2023/09/26 04:36:16;;;;;;;4.60;3.63;;;;;;;;;;5059014;28;20048;-81
2023/09/26 04:38:42;;;;;;;5.35;3.75;;;;;;;;;;5060911;28;20117;-81
2023/09/26 04:41:08;;;;;;;4.63;3.33;;;;;;;;;;5080356;28;20146;-82
2023/09/26 04:43:33;;;;;;;6.68;3.67;;;;;;;;;;5059455;28;20082;-81
2023/09/26 04:45:59;;;;;;;4.43;3.17;;;;;;;;;;5072488;28;20066;-80
2023/09/26 04:48:25;;;;;;;4.80;3.22;;;;;;;;;;5078746;28;20012;-80
2023/09/26 04:50:50;;;;;;;4.65;3.70;;;;;;;;;;5081094;28;20036;-81
2023/09/26 04:53:16;;;;;;;4.78;3.58;;;;;;;;;;5085717;28;20080;-81
2023/09/26 04:55:42;;;;;;;11.80;4.63;;;;;;;;;;5089638;28;20021;-81
2023/09/26 04:58:08;;;;;;;5.93;3.85;;;;;;;;;;5086184;28;20100;-82
2023/09/26 05:00:34;;;;;;;5.35;3.78;;;;;;;;;;5094439;28;20013;-81
2023/09/26 05:02:59;;;;;;;6.40;3.92;;;;;;;;;;5087288;28;20021;-81
2023/09/26 05:05:25;;;;;;;5.47;3.85;;;;;;;;;;5087875;28;20031;-82
2023/09/26 05:07:50;;;;;;;11.10;4.53;;;;;;;;;;5064972;28;20521;-81
2023/09/26 05:10:16;;;;;;;6.00;3.33;;;;;;;;;;5070355;28;20024;-82
2023/09/26 05:12:42;;;;;;;6.15;4.32;;;;;;;;;;5075705;28;20078;-82
2023/09/26 05:15:13;;;;;;;6.57;4.25;;;;;;;;;;5073174;28;20060;-83
2023/09/26 05:17:48;;;;;;;5.73;3.63;;;;;;;;;;5091571;28;20043;-82
2023/09/26 05:20:14;;;;;;;5.68;4.20;;;;;;;;;;5072297;28;20033;-84
2023/09/26 05:22:44;;;;;;;5.53;4.20;;;;;;;;;;5067103;28;20044;-83
2023/09/26 05:25:10;;;;;;;7.38;4.28;;;;;;;;;;5081154;28;20115;-84
2023/09/26 05:27:37;;;;;;;6.93;3.85;;;;;;;;;;5068582;28;20032;-84
2023/09/26 05:30:03;;;;;;;6.80;4.63;;;;;;;;;;5069938;28;20046;-84
2023/09/26 05:32:28;;;;;;;5.47;3.60;;;;;;;;;;5069035;28;20013;-83
2023/09/26 05:34:53;;;;;;;4.82;3.78;;;;;;;;;;5069143;28;20029;-82
2023/09/26 05:37:18;;;;;;;5.07;3.92;;;;;;;;;;5079220;28;20024;-82
2023/09/26 05:39:44;;;;;;;5.25;3.88;;;;;;;;;;5070999;28;20402;-83
2023/09/26 05:42:10;;;;;;;5.47;3.75;;;;;;;;;;5063594;28;21014;-81
2023/09/26 05:44:36;;;;;;;6.85;3.33;;;;;;;;;;5072428;28;20500;-81
2023/09/26 05:47:02;;;;;;;5.70;4.13;;;;;;;;;;5081211;28;20017;-81
2023/09/26 05:49:28;;;;;;;5.40;3.75;;;;;;;;;;5069796;28;20380;-82
2023/09/26 05:51:53;;;;;;;6.07;3.83;;;;;;;;;;5073160;28;20035;-82
2023/09/26 05:54:18;;;;;;;5.68;3.80;;;;;;;;;;5073529;28;20028;-81
2023/09/26 05:56:44;;;;;;;6.40;4.05;;;;;;;;;;5058263;28;20020;-82
2023/09/26 05:59:10;;;;;;;6.10;3.55;;;;;;;;;;5063371;28;20105;-81
2023/09/26 06:01:44;;;;;;;4.75;3.38;;;;;;;;;;5061925;28;20040;-82
2023/09/26 06:04:10;;;;;;;6.15;3.42;;;;;;;;;;5064373;28;20020;-82
2023/09/26 06:06:35;;;;;;;4.20;3.30;;;;;;;;;;5074227;28;20033;-81
2023/09/26 06:09:01;;;;;;;5.45;3.13;;;;;;;;;;5069516;28;20081;-80
2023/09/26 06:11:26;;;;;;;4.82;3.50;;;;;;;;;;5068442;28;20151;-81
2023/09/26 06:13:54;;;;;;;5.60;3.10;;;;;;;;;;5066662;28;20016;-81
2023/09/26 06:16:20;;;;;;;4.88;3.67;;;;;;;;;;5072569;28;20050;-81
2023/09/26 06:18:47;;;;;;;6.50;3.25;;;;;;;;;;5061701;28;20032;-83
2023/09/26 06:21:14;;;;;;;3.83;3.08;;;;;;;;;;5079191;28;20093;-84
2023/09/26 06:23:39;;;;;;;5.30;3.58;;;;;;;;;;5074567;28;20051;-83
2023/09/26 06:26:05;;;;;;;5.55;3.63;;;;;;;;;;5060833;28;20024;-83
2023/09/26 06:28:31;;;;;;;5.78;3.10;;;;;;;;;;5075956;28;20013;-83
2023/09/26 06:31:03;;;;;;;4.40;2.75;;;;;;;;;;5074973;28;20032;-83
2023/09/26 06:33:29;;;;;;;3.42;2.60;;;;;;;;;;5065604;28;20016;-83
2023/09/26 06:35:54;;;;;;;3.78;2.67;;;;;;;;;;5052243;28;20032;-83
2023/09/26 06:38:19;;;;;;;3.10;2.53;;;;;;;;;;5059540;28;20120;-83
2023/09/26 06:40:45;;;;;;;5.07;2.90;;;;;;;;;;5061166;28;20017;-84
2023/09/26 06:43:10;;;;;;;2.58;2.25;;;;;;;;;;5078123;28;20012;-83
2023/09/26 06:45:39;;;;;;;3.00;2.50;;;;;;;;;;5087733;28;20021;-83
2023/09/26 06:48:05;;;;;;;4.82;2.80;;;;;;;;;;5068590;28;20043;-83
2023/09/26 06:50:31;;;;;;;3.28;2.53;;;;;;;;;;5086510;28;20028;-83
2023/09/26 06:52:56;;;;;;;4.28;2.47;;;;;;;;;;5061954;28;20354;-83
2023/09/26 06:55:21;;;;;;;3.35;3.03;;;;;;;;;;5075207;28;20107;-83
2023/09/26 06:57:46;;;;;;;2.75;2.50;;;;;;;;;;5063011;28;20029;-83
2023/09/26 07:00:14;;;;;;;3.10;2.50;;;;;;;;;;5080753;28;20028;-83
2023/09/26 07:02:41;;;;;;;6.15;2.83;;;;;;;;;;5073165;28;20021;-83
2023/09/26 07:05:07;;;;;;;3.42;2.55;;;;;;;;;;5068896;28;20120;-83
2023/09/26 07:07:34;;;;;;;5.28;2.72;;;;;;;;;;5071717;28;20459;-83
2023/09/26 07:09:59;;;;;;;2.60;2.28;;;;;;;;;;5074749;28;20024;-84
2023/09/26 07:12:26;;;;;;;4.03;2.55;;;;;;;;;;5062017;28;20028;-84
2023/09/26 07:14:52;;;;;;;4.40;2.70;;;;;;;;;;5059037;28;20029;-84
2023/09/26 07:17:17;;;;;;;5.75;2.45;;;;;;;;;;5078357;28;20387;-84
2023/09/26 07:19:43;;;;;;;3.80;2.38;;;;;;;;;;5061707;28;20521;-83
2023/09/26 07:22:08;;;;;;;3.08;2.42;;;;;;;;;;5069105;28;20028;-83
2023/09/26 07:24:33;;;;;;;4.43;2.67;;;;;;;;;;5071698;28;20055;-84
2023/09/26 07:26:59;;;;;;;3.50;2.65;;;;;;;;;;5058265;28;20191;-84
2023/09/26 07:29:25;;;;;;;6.50;2.50;;;;;;;;;;5086007;28;20032;-84
2023/09/26 07:31:51;;;;;;;3.38;2.53;;;;;;;;;;5074020;28;20048;-84
2023/09/26 07:34:17;;;;;;;4.13;2.55;;;;;;;;;;5082789;28;20095;-83
2023/09/26 07:36:42;;;;;;;3.47;2.60;;;;;;;;;;5059178;28;20048;-83
2023/09/26 07:39:08;;;;;;;4.15;2.75;;;;;;;;;;5062503;28;20479;-83
2023/09/26 07:41:33;;;;;;;4.60;2.55;;;;;;;;;;5070066;28;20028;-83
2023/09/26 07:43:59;;;;;;;4.30;3.30;;;;;;;;;;5084597;28;20055;-83
2023/09/26 07:46:24;;;;;;;2.60;2.30;;;;;;;;;;5087808;28;20108;-83
2023/09/26 07:48:52;;;;;;;4.97;2.28;;;;;;;;;;5075883;28;20032;-83
2023/09/26 07:51:18;;;;;;;6.32;2.58;;;;;;;;;;5071869;28;20360;-84
2023/09/26 07:53:43;;;;;;;8.23;3.00;;;;;;;;;;5064417;28;20070;-83
2023/09/26 07:56:10;;;;;;;3.25;2.40;;;;;;;;;;5067451;28;20036;-83
2023/09/26 07:58:35;;;;;;;3.55;2.30;;;;;;;;;;5076048;28;20031;-83
2023/09/26 08:01:06;;;;;;;5.55;3.20;;;;;;;;;;5065987;28;20024;-83
2023/09/26 08:03:31;;;;;;;3.77;2.90;;;;;;;;;;5070639;28;20023;-83
2023/09/26 08:06:04;;;;;;;4.32;2.40;;;;;;;;;;5074609;28;20028;-83
2023/09/26 08:08:29;;;;;;;4.97;2.75;;;;;;;;;;5066289;28;20636;-84
2023/09/26 08:10:56;;;;;;;5.95;2.40;;;;;;;;;;5066218;28;20028;-84
2023/09/26 08:13:22;;;;;;;3.63;2.65;;;;;;;;;;5056335;28;20021;-83
2023/09/26 08:15:47;;;;;;;4.57;2.80;;;;;;;;;;5060694;28;20035;-84
2023/09/26 08:18:13;;;;;;;5.20;2.92;;;;;;;;;;5074331;28;20021;-83
2023/09/26 08:20:38;;;;;;;3.47;2.70;;;;;;;;;;5072947;28;20096;-84
2023/09/26 08:23:05;;;;;;;4.55;2.45;;;;;;;;;;5074901;28;20048;-84
2023/09/26 08:25:32;;;;;;;2.85;2.20;;;;;;;;;;5064407;28;20017;-83
2023/09/26 08:27:58;;;;;;;2.65;2.17;;;;;;;;;;5085735;28;20055;-83
2023/09/26 08:30:23;;;;;;;3.65;2.40;;;;;;;;;;5072284;28;20024;-83
2023/09/26 08:32:48;;;;;;;3.28;2.20;;;;;;;;;;5059121;28;20017;-83
2023/09/26 08:35:13;;;;;;;5.05;2.17;;;;;;;;;;5065898;28;20017;-83
2023/09/26 08:37:42;;;;;;;3.00;1.98;;;;;;;;;;5057988;28;20036;-83
2023/09/26 08:40:11;;;;;;;4.07;2.30;;;;;;;;;;5079592;28;20032;-83
2023/09/26 08:42:40;;;;;;;5.65;2.60;;;;;;;;;;5089213;28;20029;-82
2023/09/26 08:45:06;;;;;;;3.15;2.40;;;;;;;;;;5075419;28;20016;-83
2023/09/26 08:47:33;;;;;;;2.63;2.42;;;;;;;;;;5086439;28;20078;-83
2023/09/26 08:49:59;;;;;;;5.13;2.50;;;;;;;;;;5071026;28;20029;-84
2023/09/26 08:52:24;;;;;;;2.90;2.30;;;;;;;;;;5082347;28;20028;-84
2023/09/26 08:54:50;;;;;;;6.32;2.50;;;;;;;;;;5065172;28;20116;-83
2023/09/26 08:57:18;;;;;;;5.15;2.35;;;;;;;;;;5062045;28;20016;-84
2023/09/26 08:59:46;;;;;;;3.08;2.25;;;;;;;;;;5086869;28;20021;-83
2023/09/26 09:02:11;;;;;;;3.38;2.28;;;;;;;;;;5067886;28;20483;-83
2023/09/26 09:04:42;;;;;;;3.28;2.38;;;;;;;;;;5073807;28;20040;-83
2023/09/26 09:07:08;;;;;;;3.55;2.72;;;;;;;;;;5074833;28;20024;-83
2023/09/26 09:09:34;;;;;;;3.28;2.42;;;;;;;;;;5081683;28;20105;-83
2023/09/26 09:11:59;;;;;;;2.42;2.00;;;;;;;;;;5060827;28;20430;-83
2023/09/26 09:14:33;;;;;;;5.45;2.75;;;;;;;;;;5075109;28;20479;-83
2023/09/26 09:16:59;;;;;;;5.18;2.50;;;;;;;;;;5069474;28;20090;-83
2023/09/26 09:19:43;;;;;;;4.10;2.45;;;;;;;;;;5079499;28;20033;-83
2023/09/26 09:22:17;;;;;;;3.88;2.55;;;;;;;;;;5067002;28;20203;-83
2023/09/26 09:24:43;;;;;;;4.13;2.65;;;;;;;;;;5079449;28;20508;-84
2023/09/26 09:27:09;;;;;;;2.40;2.20;;;;;;;;;;5072423;28;20029;-84
2023/09/26 09:29:35;;;;;;;4.88;2.70;;;;;;;;;;5092695;28;20039;-83
2023/09/26 09:32:01;;;;;;;7.05;2.38;;;;;;;;;;5063746;28;20043;-84
2023/09/26 09:34:27;;;;;;;3.72;2.35;;;;;;;;;;5060935;28;20039;-83
2023/09/26 09:36:56;;;;;;;4.55;2.50;;;;;;;;;;5070272;28;20028;-83
2023/09/26 09:39:22;;;;;;;5.90;2.50;;;;;;;;;;5063771;28;20036;-83
2023/09/26 09:41:48;;;;;;;3.03;2.50;;;;;;;;;;5087658;28;20024;-84
2023/09/26 09:44:13;;;;;;;3.08;2.50;;;;;;;;;;5096109;28;20087;-83
2023/09/26 09:46:39;;;;;;;4.13;2.50;;;;;;;;;;5097958;28;20106;-84
2023/09/26 09:49:10;;;;;;;3.17;2.40;;;;;;;;;;5081701;28;20029;-84
2023/09/26 09:51:36;;;;;;;3.53;2.03;;;;;;;;;;5091153;28;20033;-83
2023/09/26 09:54:04;;;;;;;2.13;1.92;;;;;;;;;;5069257;28;20475;-82
2023/09/26 09:56:34;;;;;;;2.97;2.13;;;;;;;;;;5094811;28;20481;-83
2023/09/26 09:59:05;;;;;;;4.85;2.55;;;;;;;;;;5080862;28;20020;-83
2023/09/26 10:01:33;;;;;;;3.10;2.60;;;;;;;;;;5082533;28;20027;-83
2023/09/26 10:03:59;;;;;;;3.88;2.58;;;;;;;;;;5078716;28;20096;-83
2023/09/26 10:06:25;;;;;;;10.70;2.50;;;;;;;;;;5080907;28;20169;-83
2023/09/26 10:08:53;;;;;;;3.40;2.30;;;;;;;;;;5069151;28;20140;-84
2023/09/26 10:11:20;;;;;;;2.65;2.03;;;;;;;;;;5095676;28;20020;-84
2023/09/26 10:13:47;;;;;;;2.58;2.22;;;;;;;;;;5078012;28;20027;-83
2023/09/26 10:16:16;;;;;;;4.30;2.30;;;;;;;;;;5085739;28;20394;-83
2023/09/26 10:18:43;;;;;;;3.50;2.35;;;;;;;;;;5081722;28;20028;-84
2023/09/26 10:21:29;;;;;;;4.68;2.60;;;;;;;;;;5080771;28;20027;-84
2023/09/26 10:24:07;;;;;;;2.63;1.90;;;;;;;;;;5072121;28;20494;-83
2023/09/26 10:26:33;;;;;;;2.85;2.10;;;;;;;;;;5077079;28;20094;-84
2023/09/26 10:29:28;;;;;;;2.63;2.00;;;;;;;;;;5071893;28;20488;-84
2023/09/26 10:32:03;;;;;;;3.05;1.80;;;;;;;;;;5074682;28;20059;-83
2023/09/26 10:34:29;;;;;;;2.50;1.70;;;;;;;;;;5084109;28;20041;-83
2023/09/26 10:36:56;;;;;;;3.40;2.03;;;;;;;;;;5080693;28;20062;-82
2023/09/26 10:39:35;;;;;;;2.47;1.73;;;;;;;;;;5084595;28;20020;-84
2023/09/26 10:42:08;;;;;;;1.83;1.63;;;;;;;;;;5082896;28;20087;-83
2023/09/26 10:44:33;;;;;;;2.17;1.98;;;;;;;;;;5080451;28;20031;-83
2023/09/26 10:46:58;;;;;;;1.73;1.63;;;;;;;;;;5071938;28;20020;-85
2023/09/26 10:49:25;;;;;;;3.78;1.98;;;;;;;;;;5071797;28;20390;-83
2023/09/26 10:51:50;;;;;;;3.22;1.80;;;;;;;;;;5081474;28;20017;-84
2023/09/26 10:54:16;;;;;;;3.10;1.70;;;;;;;;;;5076386;28;20036;-84
2023/09/26 10:56:47;;;;;;;2.03;1.67;;;;;;;;;;5079387;28;20083;-84
2023/09/26 10:59:17;;;;;;;2.60;1.58;;;;;;;;;;5081524;28;20029;-82
2023/09/26 11:01:42;;;;;;;2.30;1.70;;;;;;;;;;5092067;28;20091;-83
2023/09/26 11:04:08;;;;;;;4.20;1.88;;;;;;;;;;5077377;28;20045;-84
2023/09/26 11:06:34;;;;;;;2.28;2.00;;;;;;;;;;5072567;28;20032;-84
2023/09/26 11:08:59;;;;;;;2.72;1.17;;;;;;;;;;5063841;28;20020;-83
2023/09/26 11:11:25;;;;;;;1.52;1.40;;;;;;;;;;5074594;28;20017;-84
2023/09/26 11:13:51;;;;;;;1.90;1.80;;;;;;;;;;5074386;28;20483;-84
2023/09/26 11:16:18;;;;;;;2.90;1.75;;;;;;;;;;5075127;28;20060;-81
2023/09/26 11:18:43;;;;;;;2.10;1.45;;;;;;;;;;5079295;28;20043;-84
2023/09/26 11:21:09;;;;;;;2.78;1.63;;;;;;;;;;5055973;28;20024;-83
2023/09/26 11:23:40;;;;;;;2.20;1.63;;;;;;;;;;5091210;28;20016;-83
2023/09/26 11:26:07;;;;;;;2.38;1.40;;;;;;;;;;5079385;28;20055;-84
2023/09/26 11:28:34;;;;;;;3.47;1.48;;;;;;;;;;5088155;28;20395;-84
2023/09/26 11:31:00;;;;;;;1.85;1.42;;;;;;;;;;5079386;28;20031;-84
2023/09/26 11:33:25;;;;;;;2.00;1.40;;;;;;;;;;5094531;28;20017;-84
2023/09/26 11:35:51;;;;;;;2.42;1.27;;;;;;;;;;5077618;28;20372;-83
2023/09/26 11:38:17;;;;;;;2.42;1.20;;;;;;;;;;5077913;28;20051;-84
2023/09/26 11:40:44;;;;;;;2.10;1.25;;;;;;;;;;5048974;28;20114;-83
2023/09/26 11:43:09;;;;;;;1.60;1.40;;;;;;;;;;5083358;28;20025;-84
2023/09/26 11:45:35;;;;;;;3.28;1.40;;;;;;;;;;5071403;28;20024;-83
2023/09/26 11:48:03;;;;;;;2.67;1.73;;;;;;;;;;5078193;28;20038;-84
2023/09/26 11:50:48;;;;;;;1.52;1.38;;;;;;;;;;5080086;28;20120;-84
2023/09/26 11:53:15;;;;;;;2.65;1.00;;;;;;;;;;5067175;28;20032;-82
2023/09/26 11:55:51;;;;;;;1.50;1.20;;;;;;;;;;5069516;28;20038;-83
2023/09/26 11:58:16;;;;;;;1.67;1.20;;;;;;;;;;5069232;28;20096;-84
2023/09/26 12:00:42;;;;;;;2.42;1.15;;;;;;;;;;5072876;28;20071;-85
2023/09/26 12:03:07;;;;;;;1.92;1.00;;;;;;;;;;5072808;28;20024;-84
2023/09/26 12:05:32;;;;;;;2.13;1.20;;;;;;;;;;5065183;28;20025;-84
2023/09/26 12:07:58;;;;;;;1.13;1.00;;;;;;;;;;5082117;28;20135;-84
2023/09/26 12:10:23;;;;;;;1.77;1.02;;;;;;;;;;5056604;28;20084;-84
2023/09/26 12:12:49;;;;;;;1.38;1.10;;;;;;;;;;5069725;28;20099;-84
2023/09/26 12:15:32;;;;;;;2.10;1.13;;;;;;;;;;5076801;28;20032;-84
2023/09/26 12:17:59;;;;;;;0.90;0.90;;;;;;;;;;5071929;28;20025;-83
2023/09/26 12:20:24;;;;;;;2.35;1.10;;;;;;;;;;5074144;28;20040;-84
2023/09/26 12:22:54;;;;;;;1.38;1.15;;;;;;;;;;5066428;28;20103;-83
2023/09/26 12:25:22;;;;;;;1.27;1.17;;;;;;;;;;5057392;28;20040;-84
2023/09/26 12:27:49;;;;;;;1.65;1.00;;;;;;;;;;5063210;28;20382;-84
2023/09/26 12:30:14;;;;;;;1.20;1.10;;;;;;;;;;5078475;28;20807;-84
2023/09/26 12:32:40;;;;;;;1.17;1.08;;;;;;;;;;5075959;28;20024;-83
2023/09/26 12:35:06;;;;;;;1.50;1.38;;;;;;;;;;5077525;28;20021;-83
2023/09/26 12:37:32;;;;;;;0.60;0.60;;;;;;;;;;5078401;28;20037;-84
2023/09/26 12:39:57;;;;;;;1.45;1.08;;;;;;;;;;5086453;28;20021;-83
2023/09/26 12:42:23;;;;;;;1.35;1.20;;;;;;;;;;5063581;28;20519;-84
2023/09/26 12:44:50;;;;;;;1.67;0.80;;;;;;;;;;5069766;28;20186;-84
2023/09/26 12:47:15;;;;;;;2.83;1.10;;;;;;;;;;5073797;28;20326;-84
2023/09/26 12:49:40;;;;;;;3.33;1.02;;;;;;;;;;5074906;28;20036;-84
2023/09/26 12:52:06;;;;;;;2.17;0.77;;;;;;;;;;5054932;28;20021;-84
2023/09/26 12:54:31;;;;;;;1.27;0.98;;;;;;;;;;5073338;28;20028;-83
2023/09/26 12:57:01;;;;;;;1.23;0.95;;;;;;;;;;5067831;28;20370;-83
2023/09/26 12:59:27;;;;;;;0.90;0.90;;;;;;;;;;5064146;28;20020;-82
2023/09/26 13:01:52;;;;;;;1.20;1.10;;;;;;;;;;5075103;28;20103;-83
2023/09/26 13:04:17;;;;;;;1.90;0.93;;;;;;;;;;5060927;28;20021;-83
2023/09/26 13:06:43;;;;;;;1.52;1.20;;;;;;;;;;5082943;28;20025;-84
2023/09/26 13:09:09;;;;;;;1.55;0.98;;;;;;;;;;5076750;28;20098;-84
2023/09/26 13:11:34;;;;;;;2.10;0.98;;;;;;;;;;5070983;28;20025;-85
2023/09/26 13:13:59;;;;;;;2.85;1.08;;;;;;;;;;5070243;28;20486;-83
2023/09/26 13:16:25;;;;;;;2.78;1.35;;;;;;;;;;5067549;28;20031;-83
2023/09/26 13:18:51;;;;;;;2.35;1.23;;;;;;;;;;5082428;28;20043;-84
2023/09/26 13:21:17;;;;;;;0.93;0.90;;;;;;;;;;5071654;28;20111;-83
2023/09/26 13:23:42;;;;;;;1.02;1.02;;;;;;;;;;5080458;28;20016;-83
2023/09/26 13:26:08;;;;;;;0.85;0.85;;;;;;;;;;5086951;28;20081;-84
2023/09/26 13:28:34;;;;;;;1.27;0.85;;;;;;;;;;5081587;28;20494;-83
2023/09/26 13:30:59;;;;;;;1.00;0.90;;;;;;;;;;5062387;28;20075;-83
2023/09/26 13:33:24;;;;;;;1.15;0.95;;;;;;;;;;5077156;28;20024;-83
2023/09/26 13:35:50;;;;;;;1.52;1.13;;;;;;;;;;5065469;28;20079;-83
2023/09/26 13:38:15;;;;;;;1.10;1.00;;;;;;;;;;5064588;28;20055;-83
2023/09/26 13:40:42;;;;;;;0.90;0.90;;;;;;;;;;5063080;28;20047;-83
2023/09/26 13:43:07;;;;;;;1.02;1.00;;;;;;;;;;5067497;28;20016;-84
2023/09/26 13:45:33;;;;;;;0.90;0.90;;;;;;;;;;5086471;28;20092;-85
2023/09/26 13:47:58;;;;;;;1.60;1.00;;;;;;;;;;5097528;28;20048;-83
2023/09/26 13:50:23;;;;;;;2.53;1.17;;;;;;;;;;5050531;28;20044;-83
2023/09/26 13:52:49;;;;;;;1.33;0.90;;;;;;;;;;5064276;28;20028;-83
2023/09/26 13:55:14;;;;;;;0.57;0.57;;;;;;;;;;5085659;28;20040;-83
2023/09/26 13:57:39;;;;;;;0.85;0.85;;;;;;;;;;5065320;28;20017;-85
2023/09/26 14:00:05;;;;;;;1.70;1.42;;;;;;;;;;5069479;28;20080;-85
2023/09/26 14:02:31;;;;;;;1.70;1.20;;;;;;;;;;5067418;28;20065;-84
2023/09/26 14:04:56;;;;;;;1.25;1.15;;;;;;;;;;5075089;28;20406;-82
2023/09/26 14:07:22;;;;;;;0.80;0.80;;;;;;;;;;5077618;28;20391;-84
2023/09/26 14:09:47;;;;;;;1.00;1.00;;;;;;;;;;5068484;28;20071;-83
2023/09/26 14:12:13;;;;;;;0.70;0.70;;;;;;;;;;5083867;28;20056;-84
2023/09/26 14:14:39;;;;;;;1.55;0.90;;;;;;;;;;5083324;28;20028;-83
2023/09/26 14:17:04;;;;;;;0.60;0.60;;;;;;;;;;5079015;28;20025;-83
2023/09/26 14:19:30;;;;;;;1.25;1.10;;;;;;;;;;5080261;28;20499;-83
2023/09/26 14:21:55;;;;;;;1.33;1.10;;;;;;;;;;5057885;28;20021;-83
2023/09/26 14:24:20;;;;;;;0.68;0.68;;;;;;;;;;5072257;28;20017;-83
2023/09/26 14:26:46;;;;;;;8.25;1.10;;;;;;;;;;5066657;28;20032;-83
2023/09/26 14:29:11;;;;;;;0.95;0.88;;;;;;;;;;5067538;28;20448;-84
2023/09/26 14:31:36;;;;;;;1.23;0.90;;;;;;;;;;5070609;28;20036;-83
2023/09/26 14:34:02;;;;;;;1.25;0.80;;;;;;;;;;5068985;28;20106;-83
2023/09/26 14:36:27;;;;;;;0.90;0.90;;;;;;;;;;5079400;28;20028;-83
2023/09/26 14:38:52;;;;;;;1.25;0.95;;;;;;;;;;5060694;28;20028;-83